CheckWX is a tool to help pilots better visualize weather data.  It is not intended as a substitute for an official pre-flight weather briefing.

08:01:04 UTC

KMLI TAF
Quad City International Airport
Moline, Illinois, USA
KMLI 190520Z 1906/2006 21003KT P6SM FEW100 BKN200 FM191500 18006KT P6SM FEW060 BKN250 FM191800 21009KT P6SM SCT070 BKN150 FM200100 VRB04KT P6SM BKN070

Mar-19@
06:00 UTC

Mar-19 @ 06:00 UTC

Mar-19@
15:00 UTC

Mar-19 @ 15:00 UTC

KMLI 190520Z 1906/2006 21003KT P6SM FEW100 BKN200
Wind
  • 210° at 3 KTS
Cloud Levels
  • Few at 10,000' AGL
  • Broken at 20,000' AGL

Mar-19@
15:00 UTC

Mar-19 @ 15:00 UTC

Mar-19@
18:00 UTC

Mar-19 @ 18:00 UTC

FM191500 18006KT P6SM FEW060 BKN250

From

From Standard forecast or significant change

Wind
  • 180° at 6 KTS
Cloud Levels
  • Few at 6,000' AGL
  • Broken at 25,000' AGL

Mar-19@
18:00 UTC

Mar-19 @ 18:00 UTC

Mar-20@
01:00 UTC

Mar-20 @ 01:00 UTC

FM191800 21009KT P6SM SCT070 BKN150

From

From Standard forecast or significant change

Wind
  • 210° at 9 KTS
Cloud Levels
  • Scattered at 7,000' AGL
  • Broken at 15,000' AGL

Mar-20@
01:00 UTC

Mar-20 @ 01:00 UTC

Mar-20@
06:00 UTC

Mar-20 @ 06:00 UTC

FM200100 VRB04KT P6SM BKN070

From

From Standard forecast or significant change

Wind
  • Variable at 4 KTS
Cloud Levels
  • Broken at 7,000' AGL